Sulphur Springs, Texas
Current Conditions -  °F | °C
As of 12:55 PM on Thursday 23 Oct 2014 (Local Time) from KSLR Reporting Station
Scattered Clouds Scattered Clouds  
Wind Chill: 72°   Ceiling: Unl
Heat Index: 72°   Visibility: 10mi
Dew Point: 51°   Wind: 3mph
Humidity: 48%   Direction: 230°SW
Pressure: 30.18"   Gusts: NA
Location:  33.14°N, 95.6°W
Report Text: KSLR 231755Z AUTO 23003KT 10SM SCT075 22/11 A3018 RMK AO2 T02210107 10221 20145
Loading
Personal Weather Stations






























Interactive Weather Map
Tropical Storm Tracking
New forecast layout! Learn more

10-Day Weather Forecast

Advertisements
Track Severe Weather on mobile